Time;durP1;ratioP1;P1;durP2;ratioP2;P2;SDS_P1;SDS_P2;PMS_P1;PMS_P2;Temp;Humidity;BMP_temperature;BMP_pressure;BME280_temperature;BME280_humidity;BME280_pressure;Samples;Min_cycle;Max_cycle;Signal;HPM_P1;HPM_P2
2022/04/02 00:01:48;;;;;;;1.10;0.70;;;3.30;99.90;;;;;;5000334;28;20554;-83
2022/04/02 00:04:14;;;;;;;0.57;0.57;;;3.30;99.90;;;;;;5002358;28;20104;-83
2022/04/02 00:06:39;;;;;;;1.37;0.97;;;3.40;99.90;;;;;;5002528;28;20042;-82
2022/04/02 00:09:05;;;;;;;0.43;0.43;;;3.40;99.90;;;;;;5002736;28;20690;-83
2022/04/02 00:11:31;;;;;;;2.93;1.90;;;3.30;99.90;;;;;;5002459;28;20045;-82
2022/04/02 00:13:58;;;;;;;1.47;0.70;;;3.30;99.90;;;;;;5000882;28;20408;-83
2022/04/02 00:16:24;;;;;;;2.00;0.80;;;3.30;99.90;;;;;;5001815;28;20116;-83
2022/04/02 00:18:50;;;;;;;2.63;0.93;;;3.30;99.90;;;;;;5001896;28;20397;-83
2022/04/02 00:21:16;;;;;;;0.50;0.50;;;3.30;99.90;;;;;;5001672;28;20069;-83
2022/04/02 00:23:44;;;;;;;0.67;0.67;;;3.30;99.90;;;;;;5002637;28;20046;-83
2022/04/02 00:26:23;;;;;;;1.03;0.50;;;3.30;99.90;;;;;;5002541;28;20045;-83
2022/04/02 00:28:50;;;;;;;0.37;0.30;;;3.30;99.90;;;;;;5002206;28;20049;-83
2022/04/02 00:31:17;;;;;;;1.13;1.03;;;3.30;99.90;;;;;;5001995;28;20120;-84
2022/04/02 00:33:45;;;;;;;1.40;0.73;;;3.30;99.90;;;;;;5000707;28;20041;-83
2022/04/02 00:36:13;;;;;;;0.43;0.43;;;3.30;99.90;;;;;;5001840;28;20061;-83
2022/04/02 00:38:39;;;;;;;0.63;0.63;;;3.30;99.90;;;;;;5002575;28;20034;-80
2022/04/02 00:41:06;;;;;;;1.30;1.20;;;3.30;99.90;;;;;;5000961;28;20107;-83
2022/04/02 00:43:42;;;;;;;0.83;0.83;;;3.30;99.90;;;;;;5001720;28;20042;-83
2022/04/02 00:46:10;;;;;;;3.37;2.07;;;3.20;99.90;;;;;;5002400;28;20050;-82
2022/04/02 00:48:36;;;;;;;0.73;0.63;;;3.20;99.90;;;;;;5000021;28;20038;-83
2022/04/02 00:51:06;;;;;;;3.70;0.67;;;3.20;99.90;;;;;;5002224;28;20107;-83
2022/04/02 00:53:36;;;;;;;4.07;1.33;;;3.20;99.90;;;;;;5002964;28;20050;-83
2022/04/02 00:56:03;;;;;;;0.93;0.93;;;3.20;99.90;;;;;;5005635;28;20261;-83
2022/04/02 00:58:29;;;;;;;12.53;0.87;;;3.30;99.90;;;;;;5005737;28;20136;-82
2022/04/02 01:00:55;;;;;;;0.30;0.30;;;3.20;99.90;;;;;;5005846;28;20176;-82
2022/04/02 01:03:21;;;;;;;0.30;0.30;;;3.20;99.90;;;;;;5003397;28;20046;-83
2022/04/02 01:05:48;;;;;;;4.87;1.10;;;3.20;99.90;;;;;;5015632;23;20061;-84
2022/04/02 01:08:13;;;;;;;0.63;0.63;;;3.20;99.90;;;;;;5005667;28;20626;-83
2022/04/02 01:10:39;;;;;;;0.63;0.47;;;3.20;99.90;;;;;;5005613;28;20033;-83
2022/04/02 01:13:08;;;;;;;0.70;0.67;;;3.10;99.90;;;;;;5006338;28;20115;-83
2022/04/02 01:15:35;;;;;;;1.30;0.83;;;3.10;99.90;;;;;;5004514;28;20176;-84
2022/04/02 01:18:00;;;;;;;1.07;0.50;;;3.10;99.90;;;;;;5005056;28;20042;-83
2022/04/02 01:20:29;;;;;;;0.53;0.53;;;3.10;99.90;;;;;;5005656;28;20083;-82
2022/04/02 01:22:55;;;;;;;0.47;0.27;;;3.10;99.90;;;;;;5003901;28;20129;-83
2022/04/02 01:25:21;;;;;;;0.57;0.43;;;3.10;99.90;;;;;;5006563;28;20045;-83
2022/04/02 01:27:47;;;;;;;7.77;1.30;;;3.10;99.90;;;;;;5005564;28;20049;-83
2022/04/02 01:30:14;;;;;;;1.37;1.27;;;3.00;99.90;;;;;;5004842;28;20560;-83
2022/04/02 01:32:40;;;;;;;3.03;0.67;;;3.00;99.90;;;;;;5004845;28;20408;-83
2022/04/02 01:35:08;;;;;;;3.80;1.60;;;2.90;99.90;;;;;;5005555;28;20044;-83
2022/04/02 01:37:34;;;;;;;0.70;0.70;;;2.90;99.90;;;;;;5005722;28;20061;-83
2022/04/02 01:39:59;;;;;;;3.27;1.03;;;2.90;99.90;;;;;;5006394;28;20060;-83
2022/04/02 01:42:26;;;;;;;0.40;0.40;;;2.90;99.90;;;;;;5023035;28;20045;-83
2022/04/02 01:44:52;;;;;;;4.33;0.67;;;2.90;99.90;;;;;;5021215;28;20038;-82
2022/04/02 01:47:19;;;;;;;22.33;1.00;;;2.80;99.90;;;;;;5004236;28;20697;-83
2022/04/02 01:49:44;;;;;;;0.67;0.67;;;2.80;99.90;;;;;;5004863;28;20034;-83
2022/04/02 01:52:11;;;;;;;1.40;1.30;;;2.80;99.90;;;;;;5005065;28;20042;-83
2022/04/02 01:54:37;;;;;;;0.77;0.57;;;2.80;99.90;;;;;;5004680;28;20096;-83
2022/04/02 01:57:03;;;;;;;0.50;0.50;;;2.80;99.90;;;;;;5005066;28;20077;-82
2022/04/02 01:59:29;;;;;;;0.33;0.20;;;2.70;99.90;;;;;;5003700;28;20054;-82
2022/04/02 02:01:54;;;;;;;0.70;0.70;;;2.70;99.90;;;;;;5002313;28;20532;-83
2022/04/02 02:04:20;;;;;;;5.43;0.77;;;2.70;99.90;;;;;;5003462;28;20038;-83
2022/04/02 02:06:45;;;;;;;0.77;0.77;;;2.70;99.90;;;;;;5003867;28;20467;-83
2022/04/02 02:09:11;;;;;;;1.77;0.53;;;2.70;99.90;;;;;;5004716;28;20042;-82
2022/04/02 02:11:37;;;;;;;1.73;1.63;;;2.60;99.90;;;;;;5004536;28;20041;-82
2022/04/02 02:14:02;;;;;;;1.30;0.80;;;2.60;99.90;;;;;;5003817;28;20100;-83
2022/04/02 02:16:28;;;;;;;2.17;1.97;;;2.60;99.90;;;;;;5003569;28;20549;-83
2022/04/02 02:18:53;;;;;;;1.50;1.40;;;2.60;99.90;;;;;;5004416;28;20065;-82
2022/04/02 02:21:19;;;;;;;1.67;1.57;;;2.50;99.90;;;;;;5004625;28;20041;-83
2022/04/02 02:23:44;;;;;;;1.13;0.93;;;2.50;99.90;;;;;;5004164;28;20468;-83
2022/04/02 02:26:10;;;;;;;0.93;0.80;;;2.50;99.90;;;;;;5004472;28;20071;-82
2022/04/02 02:28:36;;;;;;;1.50;1.37;;;2.50;99.90;;;;;;5003099;28;20044;-82
2022/04/02 02:31:01;;;;;;;0.80;0.80;;;2.50;99.90;;;;;;5004547;28;20041;-83
2022/04/02 02:36:11;;;;;;;0.30;0.20;;;2.40;99.90;;;;;;5002295;28;20049;-83
2022/04/02 02:38:37;;;;;;;0.40;0.30;;;2.50;99.90;;;;;;5004836;28;20041;-82
2022/04/02 02:41:03;;;;;;;0.87;0.23;;;2.50;99.90;;;;;;5014588;28;20048;-83
2022/04/02 02:43:28;;;;;;;1.10;0.97;;;2.40;99.90;;;;;;5023872;28;20428;-83
2022/04/02 02:45:54;;;;;;;0.70;0.70;;;2.40;99.90;;;;;;5011308;28;20121;-83
2022/04/02 02:48:21;;;;;;;3.40;1.13;;;2.30;99.90;;;;;;5002543;28;20046;-82
2022/04/02 02:50:46;;;;;;;2.90;0.97;;;2.30;99.90;;;;;;5004173;28;20089;-83
2022/04/02 02:53:12;;;;;;;1.17;0.80;;;2.30;99.90;;;;;;5003761;28;20472;-83
2022/04/02 02:55:38;;;;;;;0.43;0.43;;;2.30;99.90;;;;;;5004037;28;20034;-83
2022/04/02 02:58:04;;;;;;;0.50;0.50;;;2.30;99.90;;;;;;5004464;28;20045;-83
2022/04/02 03:00:30;;;;;;;1.53;0.93;;;2.30;99.90;;;;;;5003376;28;20045;-83
2022/04/02 03:02:55;;;;;;;0.63;0.63;;;2.30;99.90;;;;;;5003205;28;20042;-82
2022/04/02 03:05:21;;;;;;;1.27;0.70;;;2.30;99.90;;;;;;5002721;28;20046;-83
2022/04/02 03:07:49;;;;;;;0.40;0.30;;;2.20;99.90;;;;;;5003813;28;20451;-83
2022/04/02 03:10:19;;;;;;;0.73;0.73;;;2.20;99.90;;;;;;5003385;28;20049;-83
2022/04/02 03:12:48;;;;;;;0.63;0.63;;;2.20;99.90;;;;;;5003547;28;20056;-83
2022/04/02 03:15:18;;;;;;;0.87;0.70;;;2.20;99.90;;;;;;5003182;28;20412;-83
2022/04/02 03:17:45;;;;;;;11.67;1.77;;;2.20;99.90;;;;;;5001756;28;20096;-83
2022/04/02 03:20:17;;;;;;;0.57;0.57;;;2.20;99.90;;;;;;5010586;28;20042;-83
2022/04/02 03:22:45;;;;;;;0.70;0.65;;;2.20;99.90;;;;;;4984466;28;20042;-83
2022/04/02 03:25:15;;;;;;;0.23;0.23;;;2.10;99.90;;;;;;4983099;28;20394;-83
2022/04/02 03:27:43;;;;;;;0.80;0.77;;;2.10;99.90;;;;;;4983747;28;20099;-83
2022/04/02 03:30:10;;;;;;;0.23;0.23;;;2.10;99.90;;;;;;4983733;28;20046;-81
2022/04/02 03:32:36;;;;;;;1.03;0.57;;;2.10;99.90;;;;;;4983226;28;20051;-83
2022/04/02 03:35:03;;;;;;;0.43;0.43;;;2.10;99.90;;;;;;5000365;28;20053;-82
2022/04/02 03:37:30;;;;;;;3.60;0.47;;;2.10;99.90;;;;;;5022959;28;20136;-82
2022/04/02 03:39:56;;;;;;;0.80;0.77;;;2.10;99.90;;;;;;5022827;28;20757;-82
2022/04/02 03:42:21;;;;;;;0.30;0.30;;;2.10;99.90;;;;;;5022573;28;20037;-82
2022/04/02 03:44:47;;;;;;;0.37;0.10;;;2.10;99.90;;;;;;5019296;28;20408;-83
2022/04/02 03:47:15;;;;;;;0.30;0.30;;;2.10;99.90;;;;;;5001631;28;20139;-83
2022/04/02 03:49:44;;;;;;;1.40;0.90;;;2.00;99.90;;;;;;5002708;28;20049;-82
2022/04/02 03:52:10;;;;;;;0.90;0.90;;;2.00;99.90;;;;;;5002739;28;20092;-83
2022/04/02 03:54:36;;;;;;;0.40;0.40;;;2.00;99.90;;;;;;5002844;28;20042;-82
2022/04/02 03:57:03;;;;;;;0.57;0.40;;;2.00;99.90;;;;;;5002868;28;20053;-82
2022/04/02 03:59:30;;;;;;;0.53;0.53;;;2.00;99.90;;;;;;5001463;28;20081;-83
2022/04/02 04:01:56;;;;;;;0.20;0.20;;;2.00;99.90;;;;;;5001799;28;20369;-82
2022/04/02 04:04:22;;;;;;;0.30;0.30;;;2.00;99.90;;;;;;5002239;28;20060;-82
2022/04/02 04:06:48;;;;;;;0.57;0.57;;;2.00;99.90;;;;;;5002413;28;20058;-83
2022/04/02 04:09:14;;;;;;;0.60;0.60;;;2.00;99.90;;;;;;5002168;28;20046;-82
2022/04/02 04:11:40;;;;;;;8.20;0.77;;;2.00;99.90;;;;;;5001436;28;20050;-83
2022/04/02 04:14:05;;;;;;;0.27;0.20;;;2.00;99.90;;;;;;5002889;28;20042;-83
2022/04/02 04:16:31;;;;;;;0.40;0.40;;;2.00;99.90;;;;;;5001393;28;20544;-83
2022/04/02 04:18:57;;;;;;;2.63;0.87;;;2.00;99.90;;;;;;5000929;28;20081;-83
2022/04/02 04:21:24;;;;;;;1.43;1.10;;;2.00;99.90;;;;;;5002203;28;20038;-83
2022/04/02 04:23:50;;;;;;;1.33;0.60;;;2.00;99.90;;;;;;5002542;28;20049;-83
2022/04/02 04:26:16;;;;;;;1.00;0.37;;;2.00;99.90;;;;;;5001777;28;20130;-83
2022/04/02 04:28:42;;;;;;;0.40;0.13;;;2.00;99.90;;;;;;5002568;28;20129;-83
2022/04/02 04:31:08;;;;;;;0.67;0.67;;;2.00;99.90;;;;;;5001289;28;20070;-83
2022/04/02 04:33:40;;;;;;;2.13;1.23;;;2.00;99.90;;;;;;5017858;28;20049;-83
2022/04/02 04:36:05;;;;;;;0.45;0.45;;;2.00;99.90;;;;;;5020270;28;20480;-83
2022/04/02 04:38:31;;;;;;;4.50;0.73;;;2.00;99.90;;;;;;5020488;28;20096;-83
2022/04/02 04:40:56;;;;;;;0.40;0.40;;;2.10;99.90;;;;;;5020738;28;20049;-83
2022/04/02 04:43:22;;;;;;;3.30;0.60;;;2.10;99.90;;;;;;5020260;28;20045;-83
2022/04/02 04:45:48;;;;;;;0.53;0.53;;;2.10;99.90;;;;;;5007876;28;20137;-83
2022/04/02 04:48:13;;;;;;;1.03;0.70;;;2.10;99.90;;;;;;5001074;28;20125;-83
2022/04/02 04:50:39;;;;;;;0.40;0.40;;;2.10;99.90;;;;;;5000461;28;20038;-83
2022/04/02 04:53:05;;;;;;;1.07;0.97;;;2.10;99.90;;;;;;5002735;28;20042;-82
2022/04/02 04:55:30;;;;;;;0.30;0.30;;;2.10;99.90;;;;;;5001567;28;20034;-83
2022/04/02 04:57:56;;;;;;;0.50;0.50;;;2.10;99.90;;;;;;5002142;28;20053;-83
2022/04/02 05:00:22;;;;;;;10.17;1.17;;;2.10;99.90;;;;;;5002014;28;20068;-82
2022/04/02 05:02:47;;;;;;;0.30;0.30;;;2.10;99.90;;;;;;5001011;28;20081;-83
2022/04/02 05:05:13;;;;;;;2.20;1.50;;;2.10;99.90;;;;;;5000382;28;20531;-82
2022/04/02 05:07:42;;;;;;;1.27;1.10;;;2.10;99.90;;;;;;5002109;28;20045;-83
2022/04/02 05:10:10;;;;;;;4.30;0.93;;;2.10;99.90;;;;;;5013098;28;20050;-82
2022/04/02 05:12:36;;;;;;;0.77;0.53;;;2.10;99.90;;;;;;5002528;28;20049;-82
2022/04/02 05:15:03;;;;;;;0.30;0.30;;;2.00;99.90;;;;;;5001604;28;20042;-82
2022/04/02 05:17:29;;;;;;;1.17;0.93;;;2.00;99.90;;;;;;5001005;28;20807;-83
2022/04/02 05:19:55;;;;;;;3.70;1.10;;;2.10;99.90;;;;;;5000644;28;20126;-82
2022/04/02 05:22:20;;;;;;;5.10;0.77;;;2.10;99.90;;;;;;4999779;28;20180;-84
2022/04/02 05:24:46;;;;;;;0.50;0.50;;;2.10;99.90;;;;;;5000594;28;20400;-83
2022/04/02 05:27:11;;;;;;;0.63;0.20;;;2.10;99.90;;;;;;5001566;28;20073;-83
2022/04/02 05:29:37;;;;;;;0.13;0.13;;;2.10;99.90;;;;;;5001964;28;20572;-83
2022/04/02 05:32:03;;;;;;;12.30;1.10;;;2.10;99.90;;;;;;5001129;28;20041;-83
2022/04/02 05:34:30;;;;;;;0.40;0.40;;;2.00;99.90;;;;;;5001124;28;20042;-83
2022/04/02 05:36:56;;;;;;;2.30;0.80;;;2.00;99.90;;;;;;5001879;28;20619;-83
2022/04/02 05:39:22;;;;;;;0.73;0.07;;;2.00;99.90;;;;;;5001233;28;20125;-83
2022/04/02 05:41:48;;;;;;;0.23;0.23;;;2.00;99.90;;;;;;5004435;28;20050;-83
2022/04/02 05:44:14;;;;;;;0.33;0.33;;;2.00;99.90;;;;;;5003970;28;20053;-83
2022/04/02 05:46:39;;;;;;;1.10;0.87;;;2.00;99.90;;;;;;5003865;28;20397;-83
2022/04/02 05:49:05;;;;;;;0.63;0.63;;;2.10;99.90;;;;;;5005667;28;20507;-82
2022/04/02 05:51:31;;;;;;;3.03;1.33;;;2.00;99.90;;;;;;5004651;28;20046;-83
2022/04/02 05:53:57;;;;;;;0.30;0.30;;;2.10;99.90;;;;;;5005188;28;20048;-83
2022/04/02 05:56:23;;;;;;;0.83;0.83;;;2.10;99.90;;;;;;5004394;28;20038;-83
2022/04/02 05:58:51;;;;;;;0.10;0.10;;;2.10;99.90;;;;;;5003823;28;20441;-83
2022/04/02 06:01:17;;;;;;;6.30;1.13;;;2.10;99.90;;;;;;5003435;28;20050;-84
2022/04/02 06:03:43;;;;;;;8.60;1.27;;;2.10;99.90;;;;;;5004861;28;20034;-85
2022/04/02 06:06:09;;;;;;;0.40;0.40;;;2.10;99.90;;;;;;5023450;28;20769;-80
2022/04/02 06:08:34;;;;;;;0.23;0.23;;;2.20;99.90;;;;;;5023744;28;20111;-84
2022/04/02 06:11:06;;;;;;;0.60;0.60;;;2.20;99.90;;;;;;5008003;28;20737;-84
2022/04/02 06:13:31;;;;;;;0.77;0.70;;;2.20;99.90;;;;;;5002641;28;20057;-83
2022/04/02 06:15:57;;;;;;;0.77;0.77;;;2.20;99.90;;;;;;5004255;28;20042;-84
2022/04/02 06:18:23;;;;;;;0.63;0.63;;;2.20;99.90;;;;;;5003447;28;20068;-83
2022/04/02 06:20:49;;;;;;;0.87;0.87;;;2.20;99.90;;;;;;5004419;28;20033;-83
2022/04/02 06:23:15;;;;;;;0.57;0.57;;;2.20;99.90;;;;;;5003157;28;20046;-83
2022/04/02 06:25:41;;;;;;;0.90;0.90;;;2.20;99.90;;;;;;5004230;28;20052;-84
2022/04/02 06:28:07;;;;;;;0.17;0.17;;;2.30;99.90;;;;;;5004800;28;20038;-84
2022/04/02 06:30:33;;;;;;;0.90;0.90;;;2.30;99.90;;;;;;5002852;28;20100;-83
2022/04/02 06:33:00;;;;;;;0.97;0.67;;;2.30;99.90;;;;;;5006388;28;20084;-84
2022/04/02 06:35:27;;;;;;;2.10;0.73;;;2.30;99.90;;;;;;5013031;28;20475;-84
2022/04/02 06:37:54;;;;;;;0.60;0.60;;;2.30;99.90;;;;;;5003923;28;20117;-83
2022/04/02 06:40:20;;;;;;;1.43;1.33;;;2.30;99.90;;;;;;5023587;28;20559;-83
2022/04/02 06:42:45;;;;;;;1.37;1.20;;;2.30;99.90;;;;;;5005319;28;20049;-84
2022/04/02 06:45:11;;;;;;;0.80;0.80;;;2.30;99.90;;;;;;5013683;28;20056;-85
2022/04/02 06:47:37;;;;;;;0.60;0.60;;;2.30;99.90;;;;;;5002806;28;20096;-84
2022/04/02 06:50:13;;;;;;;2.50;1.10;;;2.30;99.90;;;;;;5014899;28;20484;-85
2022/04/02 06:52:39;;;;;;;0.77;0.77;;;2.30;99.90;;;;;;5004072;28;20165;-84
2022/04/02 06:55:08;;;;;;;3.50;1.80;;;2.30;99.90;;;;;;5003880;28;20037;-83
2022/04/02 06:57:41;;;;;;;0.50;0.50;;;2.30;99.90;;;;;;4997410;28;20048;-84
2022/04/02 07:00:07;;;;;;;7.00;0.60;;;2.30;99.90;;;;;;5002745;28;20041;-83
2022/04/02 07:02:33;;;;;;;0.70;0.70;;;2.30;99.90;;;;;;5001076;28;20038;-83
2022/04/02 07:04:58;;;;;;;1.90;1.10;;;2.30;99.90;;;;;;5002898;28;20099;-84
2022/04/02 07:07:24;;;;;;;0.63;0.63;;;2.40;99.90;;;;;;5015500;28;20096;-83
2022/04/02 07:09:49;;;;;;;0.60;0.60;;;2.30;99.90;;;;;;5023019;28;20049;-83
2022/04/02 07:12:15;;;;;;;0.73;0.60;;;2.40;99.90;;;;;;5020999;28;20655;-83
2022/04/02 07:14:40;;;;;;;1.07;0.70;;;2.40;99.90;;;;;;5010956;28;20573;-83
2022/04/02 07:17:08;;;;;;;3.47;0.77;;;2.40;99.90;;;;;;4999998;28;20042;-79
2022/04/02 07:19:36;;;;;;;1.53;1.20;;;2.40;99.90;;;;;;4985005;28;20045;-84
2022/04/02 07:22:11;;;;;;;1.40;1.07;;;2.50;99.90;;;;;;5005698;28;20045;-79
2022/04/02 07:24:40;;;;;;;1.33;0.97;;;2.50;99.90;;;;;;5007949;28;20030;-81
2022/04/02 07:27:09;;;;;;;1.40;1.30;;;2.50;99.90;;;;;;5017067;28;20051;-81
2022/04/02 07:29:36;;;;;;;1.00;1.00;;;2.50;99.90;;;;;;5005382;28;20080;-81
2022/04/02 07:32:02;;;;;;;1.20;1.10;;;2.50;99.90;;;;;;5000097;28;20053;-81
2022/04/02 07:34:28;;;;;;;1.60;0.93;;;2.50;99.90;;;;;;5003279;28;20124;-81
2022/04/02 07:36:59;;;;;;;0.90;0.87;;;2.60;99.90;;;;;;5020239;28;20041;-81
2022/04/02 07:39:34;;;;;;;0.70;0.70;;;2.60;99.90;;;;;;5021756;28;20539;-81
2022/04/02 07:42:08;;;;;;;2.13;0.93;;;2.60;99.90;;;;;;5020610;28;20666;-81
2022/04/02 07:44:52;;;;;;;0.73;0.73;;;2.70;99.90;;;;;;5017404;28;20045;-80
2022/04/02 07:47:22;;;;;;;0.50;0.50;;;2.70;99.90;;;;;;4998035;28;20045;-81
2022/04/02 07:49:54;;;;;;;0.90;0.90;;;2.80;99.90;;;;;;4999312;28;20046;-76
2022/04/02 07:52:22;;;;;;;0.23;0.23;;;2.80;99.90;;;;;;5000850;28;20068;-85
2022/04/02 07:54:52;;;;;;;0.20;0.20;;;2.90;99.90;;;;;;5001690;28;20052;-78
2022/04/02 07:57:17;;;;;;;0.47;0.47;;;2.90;99.90;;;;;;5000455;28;20042;-77
2022/04/02 07:59:47;;;;;;;0.93;0.50;;;3.00;99.90;;;;;;5002143;28;20407;-77
2022/04/02 08:05:05;;;;;;;0.50;0.50;;;3.10;99.90;;;;;;5001292;28;20061;-77
2022/04/02 08:07:32;;;;;;;0.30;0.30;;;3.20;99.90;;;;;;5002081;28;20061;-84
2022/04/02 08:10:00;;;;;;;0.60;0.57;;;3.20;99.90;;;;;;4998629;28;20291;-85
2022/04/02 08:12:25;;;;;;;0.47;0.40;;;3.30;99.90;;;;;;4999749;28;20050;-84
2022/04/02 08:14:52;;;;;;;0.47;0.47;;;3.30;99.90;;;;;;5002260;28;20181;-85
2022/04/02 08:17:21;;;;;;;0.77;0.77;;;3.40;99.90;;;;;;5014931;28;20057;-92
2022/04/02 08:19:50;;;;;;;1.53;1.23;;;3.40;99.90;;;;;;5021849;28;20511;-79
2022/04/02 08:22:16;;;;;;;3.70;0.50;;;3.40;99.90;;;;;;5020592;28;20041;-78
2022/04/02 08:24:43;;;;;;;0.33;0.27;;;3.40;99.90;;;;;;5020429;28;20401;-79
2022/04/02 08:27:33;;;;;;;0.10;0.10;;;3.40;99.90;;;;;;5021601;28;20056;-78
2022/04/02 08:30:10;;;;;;;1.20;0.23;;;3.50;99.90;;;;;;5020914;28;20053;-78
2022/04/02 08:32:59;;;;;;;4.83;0.97;;;3.50;99.90;;;;;;5021015;28;20115;-78
2022/04/02 08:35:56;;;;;;;0.40;0.40;;;3.60;99.90;;;;;;5020492;28;20713;-79
2022/04/02 08:38:33;;;;;;;0.73;0.43;;;3.70;99.90;;;;;;5020759;28;20095;-79
2022/04/02 08:41:35;;;;;;;0.23;0.23;;;3.70;99.90;;;;;;5020910;28;20257;-80
2022/04/02 08:44:26;;;;;;;0.28;0.28;;;3.80;99.90;;;;;;5016800;28;20049;-78
2022/04/02 08:47:28;;;;;;;0.30;0.30;;;3.90;99.90;;;;;;5000500;28;20538;-78
2022/04/02 08:50:05;;;;;;;0.20;0.08;;;4.00;99.90;;;;;;5000360;28;20046;-78
2022/04/02 08:52:56;;;;;;;0.33;0.33;;;4.00;99.90;;;;;;5000170;28;20080;-78
2022/04/02 08:55:35;;;;;;;0.70;0.70;;;4.10;99.90;;;;;;5000749;28;20045;-78
2022/04/02 08:58:23;;;;;;;1.27;1.10;;;4.10;99.90;;;;;;5001033;28;20046;-76
2022/04/02 09:01:06;;;;;;;0.67;0.67;;;4.10;99.90;;;;;;5001822;28;20089;-76
2022/04/02 09:04:04;;;;;;;0.20;0.20;;;4.10;99.90;;;;;;5001407;28;20042;-77
2022/04/02 09:06:44;;;;;;;1.57;1.47;;;4.10;99.90;;;;;;5000185;28;20488;-76
2022/04/02 09:10:01;;;;;;;0.60;0.60;;;4.10;99.90;;;;;;5000328;28;20060;-76
2022/04/02 09:12:41;;;;;;;0.43;0.43;;;4.10;99.90;;;;;;4967043;28;20050;-76
2022/04/02 09:15:15;;;;;;;0.83;0.63;;;4.10;99.90;;;;;;4976857;28;20054;-76
2022/04/02 09:18:08;;;;;;;0.53;0.33;;;4.10;99.90;;;;;;5002899;28;20121;-77
2022/04/02 09:20:38;;;;;;;;;;;4.10;99.90;;;;;;5004681;28;20046;-77
2022/04/02 09:23:12;;;;;;;0.40;0.40;;;4.00;99.90;;;;;;5004426;28;19921;-76
2022/04/02 09:26:14;;;;;;;0.67;0.57;;;4.00;99.90;;;;;;5005767;28;20100;-76
2022/04/02 09:28:59;;;;;;;1.13;0.68;;;4.00;99.90;;;;;;4987464;28;20068;-76
2022/04/02 09:31:39;;;;;;;0.70;0.70;;;4.00;99.90;;;;;;5004204;28;20049;-76
2022/04/02 09:34:45;;;;;;;0.13;0.13;;;4.00;99.90;;;;;;5003928;28;20459;-76
2022/04/02 09:37:38;;;;;;;2.30;0.57;;;4.00;99.90;;;;;;5003639;28;20053;-77
2022/04/02 09:40:09;;;;;;;5.33;0.67;;;4.00;99.90;;;;;;5003922;28;20133;-76
2022/04/02 09:42:43;;;;;;;0.10;0.10;;;4.00;99.90;;;;;;5005798;28;20484;-76
2022/04/02 09:45:14;;;;;;;5.07;1.17;;;4.10;99.90;;;;;;5003149;28;20468;-77
2022/04/02 09:47:49;;;;;;;0.23;0.23;;;4.00;99.90;;;;;;5004579;28;20179;-77
2022/04/02 09:50:23;;;;;;;0.00;0.00;;;4.10;99.90;;;;;;5005339;28;20531;-77
2022/04/02 09:52:55;;;;;;;0.97;0.60;;;4.10;99.90;;;;;;5002466;28;20064;-77
2022/04/02 09:55:30;;;;;;;0.10;0.10;;;4.10;99.90;;;;;;5001103;28;20113;-77
2022/04/02 09:58:04;;;;;;;0.30;0.30;;;4.20;99.90;;;;;;5003709;28;20046;-88
2022/04/02 10:00:50;;;;;;;0.00;0.00;;;4.20;99.90;;;;;;5003093;28;20046;-85
2022/04/02 10:04:04;;;;;;;2.23;0.40;;;4.30;99.90;;;;;;5004078;28;20132;-80
2022/04/02 10:06:41;;;;;;;0.10;0.10;;;4.40;99.90;;;;;;4972285;28;20057;-80
2022/04/02 10:09:09;;;;;;;0.70;0.70;;;4.40;99.90;;;;;;5003238;28;20058;-87
2022/04/02 10:11:52;;;;;;;1.13;0.87;;;4.40;99.90;;;;;;5002863;28;20038;-84
2022/04/02 10:14:19;;;;;;;;;;;4.50;99.90;;;;;;5004204;28;20041;-81
2022/04/02 10:16:55;;;;;;;0.30;0.30;;;4.50;99.90;;;;;;5003629;28;20353;-79
2022/04/02 10:19:29;;;;;;;2.50;0.63;;;4.60;99.90;;;;;;5004352;28;20061;-81
2022/04/02 10:21:57;;;;;;;0.20;0.20;;;4.60;99.90;;;;;;5004446;28;20103;-80
2022/04/02 10:24:24;;;;;;;0.17;0.17;;;4.70;99.90;;;;;;5003727;28;20125;-80
2022/04/02 10:26:55;;;;;;;3.00;0.60;;;4.70;99.90;;;;;;5003719;28;20045;-80
2022/04/02 10:29:35;;;;;;;3.63;0.43;;;4.70;99.90;;;;;;5003693;28;20097;-78
2022/04/02 10:32:12;;;;;;;0.10;0.10;;;4.70;99.90;;;;;;5001813;28;20046;-79
2022/04/02 10:34:56;;;;;;;1.10;0.40;;;4.70;99.90;;;;;;5003346;28;20072;-76
2022/04/02 10:37:27;;;;;;;0.20;0.20;;;4.70;99.90;;;;;;5004709;28;20077;-77
2022/04/02 10:39:57;;;;;;;0.50;0.50;;;4.60;99.90;;;;;;5005521;28;20050;-77
2022/04/02 10:42:33;;;;;;;0.10;0.10;;;4.60;99.90;;;;;;5001063;28;20057;-77
2022/04/02 10:45:01;;;;;;;0.40;0.40;;;4.60;99.90;;;;;;5001115;28;20103;-77
2022/04/02 10:47:28;;;;;;;0.17;0.17;;;4.60;99.90;;;;;;5000027;28;20042;-77
2022/04/02 10:50:05;;;;;;;8.47;0.67;;;4.70;99.90;;;;;;5003414;28;20046;-77
2022/04/02 10:52:31;;;;;;;0.27;0.27;;;4.70;99.90;;;;;;5018003;28;20046;-77
2022/04/02 10:54:58;;;;;;;0.10;0.10;;;4.70;99.90;;;;;;5005699;28;20038;-77
2022/04/02 10:57:28;;;;;;;0.37;0.37;;;4.70;99.90;;;;;;5002089;28;20038;-77
2022/04/02 11:00:00;;;;;;;0.87;0.50;;;4.70;99.90;;;;;;5002205;28;20034;-77
2022/04/02 11:02:42;;;;;;;0.60;0.60;;;4.70;99.90;;;;;;5002000;28;20057;-77
2022/04/02 11:05:10;;;;;;;0.20;0.20;;;4.90;99.90;;;;;;5001875;28;20038;-77
2022/04/02 11:07:40;;;;;;;2.00;1.27;;;4.90;99.90;;;;;;5004676;28;20080;-77
2022/04/02 11:10:07;;;;;;;11.13;0.97;;;4.80;99.90;;;;;;5006198;28;20033;-77
2022/04/02 11:12:45;;;;;;;0.77;0.40;;;4.80;99.90;;;;;;5001232;28;20053;-77
2022/04/02 11:15:23;;;;;;;9.77;0.63;;;4.80;99.90;;;;;;5003967;28;20045;-77
2022/04/02 11:17:51;;;;;;;0.27;0.27;;;4.80;99.90;;;;;;5002663;28;20046;-77
2022/04/02 11:20:24;;;;;;;0.15;0.15;;;4.90;99.90;;;;;;5005744;28;20053;-79
2022/04/02 11:23:02;;;;;;;0.30;0.30;;;4.90;99.90;;;;;;5003060;28;20052;-78
2022/04/02 11:25:31;;;;;;;1.73;0.73;;;4.90;99.90;;;;;;5003449;28;20050;-78
2022/04/02 11:28:13;;;;;;;0.13;0.13;;;4.90;99.90;;;;;;5002122;28;20050;-78
2022/04/02 11:30:42;;;;;;;0.40;0.40;;;5.00;99.90;;;;;;5015533;28;20060;-79
2022/04/02 11:33:24;;;;;;;0.40;0.40;;;5.00;99.90;;;;;;5003534;28;20046;-78
2022/04/02 11:35:55;;;;;;;2.00;0.75;;;4.90;99.90;;;;;;5009389;28;20308;-78
2022/04/02 11:38:23;;;;;;;0.10;0.10;;;5.00;99.90;;;;;;5001376;28;20049;-82
2022/04/02 11:41:01;;;;;;;15.18;0.60;;;5.00;99.90;;;;;;4999287;28;20054;-76
2022/04/02 11:43:39;;;;;;;0.20;0.20;;;5.00;99.90;;;;;;5012159;28;20433;-76
2022/04/02 11:46:09;;;;;;;8.90;1.50;;;5.00;99.90;;;;;;4990520;28;20042;-76
2022/04/02 11:48:38;;;;;;;3.20;1.10;;;5.00;99.90;;;;;;5002353;28;20168;-75
2022/04/02 11:51:25;;;;;;;0.50;0.50;;;5.10;99.90;;;;;;5003709;28;20378;-77
2022/04/02 11:53:51;;;;;;;0.13;0.13;;;5.10;99.90;;;;;;5004634;28;20054;-77
2022/04/02 11:56:25;;;;;;;0.20;0.20;;;5.10;99.90;;;;;;5010169;28;20053;-76
2022/04/02 11:58:51;;;;;;;0.20;0.20;;;5.00;99.90;;;;;;5008860;28;20543;-77
2022/04/02 12:01:19;;;;;;;1.53;1.20;;;5.00;99.90;;;;;;5007453;28;20068;-77
2022/04/02 12:03:45;;;;;;;0.90;0.37;;;5.10;99.90;;;;;;5012412;28;20080;-77
2022/04/02 12:06:11;;;;;;;3.93;0.77;;;5.20;99.90;;;;;;5009963;28;20081;-77
2022/04/02 12:08:41;;;;;;;0.53;0.53;;;5.20;99.90;;;;;;5024774;28;20041;-77
2022/04/02 12:11:09;;;;;;;0.70;0.27;;;5.20;99.90;;;;;;5003146;28;20133;-76
2022/04/02 12:13:36;;;;;;;0.20;0.20;;;5.30;99.90;;;;;;5000447;28;20042;-76
2022/04/02 12:16:01;;;;;;;3.97;0.50;;;5.40;99.90;;;;;;5001134;28;20045;-77
2022/04/02 12:18:28;;;;;;;0.22;0.22;;;5.40;99.90;;;;;;5002772;28;20050;-77
2022/04/02 12:21:03;;;;;;;0.50;0.47;;;5.40;99.90;;;;;;5001989;28;20492;-77
2022/04/02 12:23:29;;;;;;;0.80;0.80;;;5.40;99.90;;;;;;5004582;28;20033;-77
2022/04/02 12:25:57;;;;;;;0.85;0.63;;;5.40;99.90;;;;;;5003006;28;20094;-77
2022/04/02 12:28:23;;;;;;;1.23;1.08;;;5.40;99.90;;;;;;5000473;28;20719;-77
2022/04/02 12:30:52;;;;;;;0.20;0.20;;;5.30;99.90;;;;;;4999754;28;20041;-76
2022/04/02 12:33:20;;;;;;;0.67;0.57;;;5.40;99.90;;;;;;5009304;28;20129;-77
2022/04/02 12:35:57;;;;;;;13.00;1.02;;;5.30;99.90;;;;;;4999938;28;20050;-91
2022/04/02 12:38:29;;;;;;;0.57;0.57;;;5.40;99.90;;;;;;4999880;28;20315;-91
2022/04/02 12:40:57;;;;;;;0.20;0.20;;;5.40;99.90;;;;;;5009504;28;20075;-88
2022/04/02 12:43:33;;;;;;;0.15;0.15;;;5.40;99.90;;;;;;5007908;28;20041;-93
2022/04/02 12:46:00;;;;;;;0.30;0.30;;;5.40;99.90;;;;;;5007672;28;20068;-81
2022/04/02 12:48:39;;;;;;;0.20;0.20;;;5.40;99.90;;;;;;4999961;28;20038;-88
2022/04/02 12:51:05;;;;;;;0.20;0.20;;;5.40;99.90;;;;;;5025114;28;20103;-86
2022/04/02 12:53:32;;;;;;;0.43;0.43;;;5.50;99.90;;;;;;5026310;28;20467;-92
2022/04/02 12:55:59;;;;;;;0.80;0.80;;;5.50;99.90;;;;;;5015829;28;20048;-87
2022/04/02 12:58:39;;;;;;;0.30;0.30;;;5.40;99.90;;;;;;5022588;28;20046;-77
2022/04/02 13:01:20;;;;;;;0.30;0.10;;;5.40;99.90;;;;;;5013091;28;20042;-87
2022/04/02 13:03:48;;;;;;;0.43;0.43;;;5.40;99.90;;;;;;4988931;28;20455;-88
2022/04/02 13:06:22;;;;;;;0.20;0.20;;;5.50;99.90;;;;;;5004037;28;20129;-86
2022/04/02 13:08:56;;;;;;;0.73;0.73;;;5.50;99.90;;;;;;4997541;28;20058;-83
2022/04/02 13:11:32;;;;;;;0.30;0.30;;;5.40;99.70;;;;;;5007971;28;20077;-82
2022/04/02 13:14:18;;;;;;;0.43;0.43;;;5.50;99.90;;;;;;5010332;28;20045;-79
2022/04/02 13:16:50;;;;;;;0.28;0.28;;;5.50;99.90;;;;;;5009532;28;20040;-80
2022/04/02 13:22:15;;;;;;;0.20;0.20;;;5.50;99.90;;;;;;5011713;28;20049;-76